sensor_id;sensor_type;location;lat;lon;timestamp;P1;durP1;ratioP1;P2;durP2;ratioP2
27706;SDS011;36332;51.384;0.040;2023-03-08T00:01:16;73.03;;;33.58;;
27706;SDS011;36332;51.384;0.040;2023-03-08T00:03:45;73.35;;;33.95;;
27706;SDS011;36332;51.384;0.040;2023-03-08T00:06:14;71.50;;;33.30;;
27706;SDS011;36332;51.384;0.040;2023-03-08T00:08:42;68.47;;;32.47;;
27706;SDS011;36332;51.384;0.040;2023-03-08T00:11:10;73.60;;;36.30;;
27706;SDS011;36332;51.384;0.040;2023-03-08T00:13:38;80.18;;;35.05;;
27706;SDS011;36332;51.384;0.040;2023-03-08T00:16:07;74.97;;;34.25;;
27706;SDS011;36332;51.384;0.040;2023-03-08T00:18:38;82.07;;;36.40;;
27706;SDS011;36332;51.384;0.040;2023-03-08T00:21:07;75.80;;;36.28;;
27706;SDS011;36332;51.384;0.040;2023-03-08T00:23:39;71.20;;;34.30;;
27706;SDS011;36332;51.384;0.040;2023-03-08T00:26:08;84.30;;;39.10;;
27706;SDS011;36332;51.384;0.040;2023-03-08T00:28:37;81.18;;;37.40;;
27706;SDS011;36332;51.384;0.040;2023-03-08T00:31:06;76.68;;;38.00;;
27706;SDS011;36332;51.384;0.040;2023-03-08T00:33:36;91.60;;;39.30;;
27706;SDS011;36332;51.384;0.040;2023-03-08T00:36:15;82.30;;;39.03;;
27706;SDS011;36332;51.384;0.040;2023-03-08T00:38:44;89.40;;;40.33;;
27706;SDS011;36332;51.384;0.040;2023-03-08T00:41:13;82.47;;;37.67;;
27706;SDS011;36332;51.384;0.040;2023-03-08T00:43:41;84.53;;;39.42;;
27706;SDS011;36332;51.384;0.040;2023-03-08T00:46:10;90.13;;;39.33;;
27706;SDS011;36332;51.384;0.040;2023-03-08T00:48:38;85.63;;;40.75;;
27706;SDS011;36332;51.384;0.040;2023-03-08T00:51:07;83.25;;;38.90;;
27706;SDS011;36332;51.384;0.040;2023-03-08T00:53:38;77.63;;;37.30;;
27706;SDS011;36332;51.384;0.040;2023-03-08T00:56:05;79.28;;;38.08;;
27706;SDS011;36332;51.384;0.040;2023-03-08T00:58:36;81.78;;;37.88;;
27706;SDS011;36332;51.384;0.040;2023-03-08T01:01:06;79.45;;;38.78;;
27706;SDS011;36332;51.384;0.040;2023-03-08T01:03:37;79.18;;;37.40;;
27706;SDS011;36332;51.384;0.040;2023-03-08T01:06:06;82.95;;;37.85;;
27706;SDS011;36332;51.384;0.040;2023-03-08T01:08:36;84.88;;;39.85;;
27706;SDS011;36332;51.384;0.040;2023-03-08T01:11:06;77.40;;;37.40;;
27706;SDS011;36332;51.384;0.040;2023-03-08T01:13:40;89.75;;;42.13;;
27706;SDS011;36332;51.384;0.040;2023-03-08T01:16:13;76.90;;;38.20;;
27706;SDS011;36332;51.384;0.040;2023-03-08T01:18:42;85.15;;;37.45;;
27706;SDS011;36332;51.384;0.040;2023-03-08T01:21:11;84.65;;;39.58;;
27706;SDS011;36332;51.384;0.040;2023-03-08T01:23:39;84.05;;;39.97;;
27706;SDS011;36332;51.384;0.040;2023-03-08T01:26:12;84.50;;;39.13;;
27706;SDS011;36332;51.384;0.040;2023-03-08T01:28:41;92.82;;;40.58;;
27706;SDS011;36332;51.384;0.040;2023-03-08T01:31:11;82.07;;;39.15;;
27706;SDS011;36332;51.384;0.040;2023-03-08T01:33:41;93.88;;;38.97;;
27706;SDS011;36332;51.384;0.040;2023-03-08T01:36:10;82.90;;;38.08;;
27706;SDS011;36332;51.384;0.040;2023-03-08T01:38:43;81.40;;;38.20;;
27706;SDS011;36332;51.384;0.040;2023-03-08T01:41:21;73.40;;;37.17;;
27706;SDS011;36332;51.384;0.040;2023-03-08T01:43:51;81.78;;;38.80;;
27706;SDS011;36332;51.384;0.040;2023-03-08T01:46:24;87.35;;;41.85;;
27706;SDS011;36332;51.384;0.040;2023-03-08T01:52:02;83.70;;;39.17;;
27706;SDS011;36332;51.384;0.040;2023-03-08T01:57:18;77.15;;;38.00;;
27706;SDS011;36332;51.384;0.040;2023-03-08T01:59:50;76.22;;;37.40;;
27706;SDS011;36332;51.384;0.040;2023-03-08T02:02:23;70.70;;;34.67;;
27706;SDS011;36332;51.384;0.040;2023-03-08T02:04:56;60.88;;;32.53;;
27706;SDS011;36332;51.384;0.040;2023-03-08T02:07:25;62.92;;;31.00;;
27706;SDS011;36332;51.384;0.040;2023-03-08T02:09:53;63.97;;;31.55;;
27706;SDS011;36332;51.384;0.040;2023-03-08T02:12:21;55.88;;;29.52;;
27706;SDS011;36332;51.384;0.040;2023-03-08T02:14:49;58.05;;;28.52;;
27706;SDS011;36332;51.384;0.040;2023-03-08T02:17:16;55.78;;;26.55;;
27706;SDS011;36332;51.384;0.040;2023-03-08T02:22:38;53.88;;;27.02;;
27706;SDS011;36332;51.384;0.040;2023-03-08T02:25:12;54.15;;;27.63;;
27706;SDS011;36332;51.384;0.040;2023-03-08T02:27:40;56.67;;;28.02;;
27706;SDS011;36332;51.384;0.040;2023-03-08T02:30:09;53.13;;;26.80;;
27706;SDS011;36332;51.384;0.040;2023-03-08T02:32:39;59.90;;;29.45;;
27706;SDS011;36332;51.384;0.040;2023-03-08T02:35:07;61.50;;;29.63;;
27706;SDS011;36332;51.384;0.040;2023-03-08T02:37:35;56.58;;;29.38;;
27706;SDS011;36332;51.384;0.040;2023-03-08T02:40:03;64.47;;;30.98;;
27706;SDS011;36332;51.384;0.040;2023-03-08T02:42:31;58.85;;;28.17;;
27706;SDS011;36332;51.384;0.040;2023-03-08T02:44:59;54.92;;;26.75;;
27706;SDS011;36332;51.384;0.040;2023-03-08T02:47:27;58.17;;;28.23;;
27706;SDS011;36332;51.384;0.040;2023-03-08T02:49:54;58.95;;;27.25;;
27706;SDS011;36332;51.384;0.040;2023-03-08T02:52:22;57.50;;;27.67;;
27706;SDS011;36332;51.384;0.040;2023-03-08T02:54:50;55.05;;;26.27;;
27706;SDS011;36332;51.384;0.040;2023-03-08T02:57:21;56.67;;;28.52;;
27706;SDS011;36332;51.384;0.040;2023-03-08T02:59:50;59.50;;;26.90;;
27706;SDS011;36332;51.384;0.040;2023-03-08T03:02:18;57.83;;;27.85;;
27706;SDS011;36332;51.384;0.040;2023-03-08T03:04:46;57.75;;;24.70;;
27706;SDS011;36332;51.384;0.040;2023-03-08T03:07:14;50.97;;;25.67;;
27706;SDS011;36332;51.384;0.040;2023-03-08T03:09:42;59.35;;;28.73;;
27706;SDS011;36332;51.384;0.040;2023-03-08T03:12:11;51.78;;;25.20;;
27706;SDS011;36332;51.384;0.040;2023-03-08T03:14:40;55.63;;;26.25;;
27706;SDS011;36332;51.384;0.040;2023-03-08T03:17:09;56.28;;;25.77;;
27706;SDS011;36332;51.384;0.040;2023-03-08T03:19:37;54.22;;;25.88;;
27706;SDS011;36332;51.384;0.040;2023-03-08T03:22:04;55.97;;;25.25;;
27706;SDS011;36332;51.384;0.040;2023-03-08T03:24:33;51.95;;;25.33;;
27706;SDS011;36332;51.384;0.040;2023-03-08T03:27:05;46.53;;;22.50;;
27706;SDS011;36332;51.384;0.040;2023-03-08T03:29:36;57.70;;;25.42;;
27706;SDS011;36332;51.384;0.040;2023-03-08T03:34:40;49.53;;;24.75;;
27706;SDS011;36332;51.384;0.040;2023-03-08T03:37:08;54.35;;;23.55;;
27706;SDS011;36332;51.384;0.040;2023-03-08T03:39:38;55.00;;;26.45;;
27706;SDS011;36332;51.384;0.040;2023-03-08T03:42:09;53.60;;;26.20;;
27706;SDS011;36332;51.384;0.040;2023-03-08T03:44:42;57.05;;;27.45;;
27706;SDS011;36332;51.384;0.040;2023-03-08T03:47:14;57.72;;;27.10;;
27706;SDS011;36332;51.384;0.040;2023-03-08T03:49:43;64.53;;;28.23;;
27706;SDS011;36332;51.384;0.040;2023-03-08T03:52:13;52.72;;;25.33;;
27706;SDS011;36332;51.384;0.040;2023-03-08T03:54:48;53.83;;;25.45;;
27706;SDS011;36332;51.384;0.040;2023-03-08T03:57:15;51.53;;;24.70;;
27706;SDS011;36332;51.384;0.040;2023-03-08T03:59:43;46.85;;;21.35;;
27706;SDS011;36332;51.384;0.040;2023-03-08T04:02:11;45.80;;;21.63;;
27706;SDS011;36332;51.384;0.040;2023-03-08T04:04:48;46.50;;;21.50;;
27706;SDS011;36332;51.384;0.040;2023-03-08T04:07:19;46.65;;;20.65;;
27706;SDS011;36332;51.384;0.040;2023-03-08T04:09:56;37.35;;;17.85;;
27706;SDS011;36332;51.384;0.040;2023-03-08T04:12:24;40.47;;;18.38;;
27706;SDS011;36332;51.384;0.040;2023-03-08T04:14:52;42.05;;;17.92;;
27706;SDS011;36332;51.384;0.040;2023-03-08T04:17:22;34.78;;;16.85;;
27706;SDS011;36332;51.384;0.040;2023-03-08T04:19:52;31.33;;;16.45;;
27706;SDS011;36332;51.384;0.040;2023-03-08T04:22:21;30.95;;;16.88;;
27706;SDS011;36332;51.384;0.040;2023-03-08T04:24:55;30.70;;;16.20;;
27706;SDS011;36332;51.384;0.040;2023-03-08T04:27:32;31.20;;;14.63;;
27706;SDS011;36332;51.384;0.040;2023-03-08T04:30:00;30.27;;;14.38;;
27706;SDS011;36332;51.384;0.040;2023-03-08T04:32:33;33.90;;;15.65;;
27706;SDS011;36332;51.384;0.040;2023-03-08T04:35:01;30.75;;;13.75;;
27706;SDS011;36332;51.384;0.040;2023-03-08T04:37:31;35.03;;;15.43;;
27706;SDS011;36332;51.384;0.040;2023-03-08T04:40:10;31.00;;;15.95;;
27706;SDS011;36332;51.384;0.040;2023-03-08T04:42:46;35.30;;;16.42;;
27706;SDS011;36332;51.384;0.040;2023-03-08T04:45:18;34.30;;;14.68;;
27706;SDS011;36332;51.384;0.040;2023-03-08T04:47:45;31.90;;;14.68;;
27706;SDS011;36332;51.384;0.040;2023-03-08T04:50:13;33.70;;;15.52;;
27706;SDS011;36332;51.384;0.040;2023-03-08T04:52:40;30.60;;;16.95;;
27706;SDS011;36332;51.384;0.040;2023-03-08T04:55:10;35.03;;;16.92;;
27706;SDS011;36332;51.384;0.040;2023-03-08T04:57:38;41.08;;;17.67;;
27706;SDS011;36332;51.384;0.040;2023-03-08T05:00:05;41.10;;;18.30;;
27706;SDS011;36332;51.384;0.040;2023-03-08T05:02:37;31.77;;;15.80;;
27706;SDS011;36332;51.384;0.040;2023-03-08T05:05:10;32.38;;;16.55;;
27706;SDS011;36332;51.384;0.040;2023-03-08T05:07:38;34.13;;;16.20;;
27706;SDS011;36332;51.384;0.040;2023-03-08T05:10:05;31.23;;;15.77;;
27706;SDS011;36332;51.384;0.040;2023-03-08T05:12:33;34.88;;;17.67;;
27706;SDS011;36332;51.384;0.040;2023-03-08T05:15:01;29.70;;;16.40;;
27706;SDS011;36332;51.384;0.040;2023-03-08T05:17:29;32.75;;;16.65;;
27706;SDS011;36332;51.384;0.040;2023-03-08T05:19:57;31.48;;;15.23;;
27706;SDS011;36332;51.384;0.040;2023-03-08T05:22:31;28.50;;;14.60;;
27706;SDS011;36332;51.384;0.040;2023-03-08T05:25:11;28.75;;;16.05;;
27706;SDS011;36332;51.384;0.040;2023-03-08T05:27:38;32.05;;;15.57;;
27706;SDS011;36332;51.384;0.040;2023-03-08T05:30:08;29.17;;;15.35;;
27706;SDS011;36332;51.384;0.040;2023-03-08T05:32:36;27.00;;;15.93;;
27706;SDS011;36332;51.384;0.040;2023-03-08T05:35:04;32.30;;;14.80;;
27706;SDS011;36332;51.384;0.040;2023-03-08T05:37:34;27.30;;;15.88;;
27706;SDS011;36332;51.384;0.040;2023-03-08T05:40:03;25.13;;;15.13;;
27706;SDS011;36332;51.384;0.040;2023-03-08T05:42:35;30.92;;;15.40;;
27706;SDS011;36332;51.384;0.040;2023-03-08T05:45:04;24.40;;;14.73;;
27706;SDS011;36332;51.384;0.040;2023-03-08T05:47:36;29.35;;;14.18;;
27706;SDS011;36332;51.384;0.040;2023-03-08T05:50:08;23.30;;;12.55;;
27706;SDS011;36332;51.384;0.040;2023-03-08T05:52:39;22.70;;;12.40;;
27706;SDS011;36332;51.384;0.040;2023-03-08T05:55:12;21.02;;;12.05;;
27706;SDS011;36332;51.384;0.040;2023-03-08T05:57:41;25.25;;;12.38;;
27706;SDS011;36332;51.384;0.040;2023-03-08T06:00:09;20.30;;;12.25;;
27706;SDS011;36332;51.384;0.040;2023-03-08T06:02:48;25.65;;;13.15;;
27706;SDS011;36332;51.384;0.040;2023-03-08T06:05:15;25.63;;;13.35;;
27706;SDS011;36332;51.384;0.040;2023-03-08T06:07:45;20.73;;;13.27;;
27706;SDS011;36332;51.384;0.040;2023-03-08T06:10:14;19.13;;;11.82;;
27706;SDS011;36332;51.384;0.040;2023-03-08T06:12:42;20.13;;;11.20;;
27706;SDS011;36332;51.384;0.040;2023-03-08T06:15:13;18.88;;;10.63;;
27706;SDS011;36332;51.384;0.040;2023-03-08T06:17:41;14.75;;;10.05;;
27706;SDS011;36332;51.384;0.040;2023-03-08T06:20:11;14.50;;;8.68;;
27706;SDS011;36332;51.384;0.040;2023-03-08T06:22:45;15.43;;;9.93;;
27706;SDS011;36332;51.384;0.040;2023-03-08T06:25:13;16.08;;;9.27;;
27706;SDS011;36332;51.384;0.040;2023-03-08T06:27:41;15.48;;;9.18;;
27706;SDS011;36332;51.384;0.040;2023-03-08T06:30:19;13.52;;;8.02;;
27706;SDS011;36332;51.384;0.040;2023-03-08T06:32:48;15.80;;;7.80;;
27706;SDS011;36332;51.384;0.040;2023-03-08T06:35:15;13.98;;;7.85;;
27706;SDS011;36332;51.384;0.040;2023-03-08T06:37:50;12.77;;;8.43;;
27706;SDS011;36332;51.384;0.040;2023-03-08T06:40:18;11.68;;;6.78;;
27706;SDS011;36332;51.384;0.040;2023-03-08T06:42:47;11.13;;;7.60;;
27706;SDS011;36332;51.384;0.040;2023-03-08T06:45:15;13.98;;;8.15;;
27706;SDS011;36332;51.384;0.040;2023-03-08T06:47:44;12.57;;;7.18;;
27706;SDS011;36332;51.384;0.040;2023-03-08T06:50:13;12.88;;;7.72;;
27706;SDS011;36332;51.384;0.040;2023-03-08T06:52:43;10.02;;;6.55;;
27706;SDS011;36332;51.384;0.040;2023-03-08T06:55:13;10.45;;;7.28;;
27706;SDS011;36332;51.384;0.040;2023-03-08T06:57:42;10.18;;;6.00;;
27706;SDS011;36332;51.384;0.040;2023-03-08T07:00:09;12.10;;;7.20;;
27706;SDS011;36332;51.384;0.040;2023-03-08T07:02:38;9.00;;;6.53;;
27706;SDS011;36332;51.384;0.040;2023-03-08T07:05:06;10.07;;;6.63;;
27706;SDS011;36332;51.384;0.040;2023-03-08T07:07:34;9.90;;;6.40;;
27706;SDS011;36332;51.384;0.040;2023-03-08T07:10:03;9.55;;;6.22;;
27706;SDS011;36332;51.384;0.040;2023-03-08T07:12:31;12.25;;;6.32;;
27706;SDS011;36332;51.384;0.040;2023-03-08T07:14:58;9.32;;;5.53;;
27706;SDS011;36332;51.384;0.040;2023-03-08T07:17:26;8.45;;;5.10;;
27706;SDS011;36332;51.384;0.040;2023-03-08T07:19:54;11.57;;;5.70;;
27706;SDS011;36332;51.384;0.040;2023-03-08T07:22:21;8.23;;;5.03;;
27706;SDS011;36332;51.384;0.040;2023-03-08T07:24:49;6.65;;;4.57;;
27706;SDS011;36332;51.384;0.040;2023-03-08T07:27:16;5.63;;;3.90;;
27706;SDS011;36332;51.384;0.040;2023-03-08T07:29:44;5.82;;;3.90;;
27706;SDS011;36332;51.384;0.040;2023-03-08T07:32:12;5.63;;;3.70;;
27706;SDS011;36332;51.384;0.040;2023-03-08T07:34:39;5.00;;;3.95;;
27706;SDS011;36332;51.384;0.040;2023-03-08T07:37:14;5.28;;;4.05;;
27706;SDS011;36332;51.384;0.040;2023-03-08T07:39:42;6.80;;;4.50;;
27706;SDS011;36332;51.384;0.040;2023-03-08T07:42:09;5.72;;;3.83;;
27706;SDS011;36332;51.384;0.040;2023-03-08T07:44:37;6.80;;;5.53;;
27706;SDS011;36332;51.384;0.040;2023-03-08T07:47:05;5.53;;;4.28;;
27706;SDS011;36332;51.384;0.040;2023-03-08T07:49:33;6.07;;;4.07;;
27706;SDS011;36332;51.384;0.040;2023-03-08T07:52:01;10.40;;;4.40;;
27706;SDS011;36332;51.384;0.040;2023-03-08T07:54:29;9.63;;;4.90;;
27706;SDS011;36332;51.384;0.040;2023-03-08T07:56:56;6.22;;;4.53;;
27706;SDS011;36332;51.384;0.040;2023-03-08T07:59:24;6.40;;;4.80;;
27706;SDS011;36332;51.384;0.040;2023-03-08T08:01:51;7.18;;;5.40;;
27706;SDS011;36332;51.384;0.040;2023-03-08T08:04:19;6.65;;;5.38;;
27706;SDS011;36332;51.384;0.040;2023-03-08T08:06:49;8.40;;;6.28;;
27706;SDS011;36332;51.384;0.040;2023-03-08T08:09:16;9.38;;;6.72;;
27706;SDS011;36332;51.384;0.040;2023-03-08T08:11:44;12.30;;;7.70;;
27706;SDS011;36332;51.384;0.040;2023-03-08T08:14:12;15.95;;;7.80;;
27706;SDS011;36332;51.384;0.040;2023-03-08T08:16:39;10.25;;;7.50;;
27706;SDS011;36332;51.384;0.040;2023-03-08T08:19:08;12.20;;;9.25;;
27706;SDS011;36332;51.384;0.040;2023-03-08T08:21:37;14.05;;;8.40;;
27706;SDS011;36332;51.384;0.040;2023-03-08T08:24:04;13.93;;;8.55;;
27706;SDS011;36332;51.384;0.040;2023-03-08T08:26:32;11.50;;;8.90;;
27706;SDS011;36332;51.384;0.040;2023-03-08T08:29:00;10.88;;;9.13;;
27706;SDS011;36332;51.384;0.040;2023-03-08T08:31:28;17.15;;;9.63;;
27706;SDS011;36332;51.384;0.040;2023-03-08T08:33:57;15.73;;;9.98;;
27706;SDS011;36332;51.384;0.040;2023-03-08T08:36:26;13.77;;;9.63;;
27706;SDS011;36332;51.384;0.040;2023-03-08T08:38:53;13.45;;;9.85;;
27706;SDS011;36332;51.384;0.040;2023-03-08T08:41:21;18.27;;;9.27;;
27706;SDS011;36332;51.384;0.040;2023-03-08T08:43:49;9.70;;;8.63;;
27706;SDS011;36332;51.384;0.040;2023-03-08T08:46:17;14.25;;;9.52;;
27706;SDS011;36332;51.384;0.040;2023-03-08T08:48:45;9.80;;;8.27;;
27706;SDS011;36332;51.384;0.040;2023-03-08T08:51:13;12.18;;;9.20;;
27706;SDS011;36332;51.384;0.040;2023-03-08T08:53:40;9.90;;;8.90;;
27706;SDS011;36332;51.384;0.040;2023-03-08T08:58:55;11.93;;;9.40;;
27706;SDS011;36332;51.384;0.040;2023-03-08T09:01:24;10.65;;;7.68;;
27706;SDS011;36332;51.384;0.040;2023-03-08T09:03:54;14.85;;;8.52;;
27706;SDS011;36332;51.384;0.040;2023-03-08T09:06:23;14.80;;;7.90;;
27706;SDS011;36332;51.384;0.040;2023-03-08T09:08:52;10.48;;;8.05;;
27706;SDS011;36332;51.384;0.040;2023-03-08T09:11:21;15.77;;;10.05;;
27706;SDS011;36332;51.384;0.040;2023-03-08T09:13:49;18.23;;;9.57;;
27706;SDS011;36332;51.384;0.040;2023-03-08T09:16:18;17.85;;;10.38;;
27706;SDS011;36332;51.384;0.040;2023-03-08T09:18:51;14.48;;;9.40;;
27706;SDS011;36332;51.384;0.040;2023-03-08T09:21:21;11.05;;;8.98;;
27706;SDS011;36332;51.384;0.040;2023-03-08T09:23:50;16.27;;;9.45;;
27706;SDS011;36332;51.384;0.040;2023-03-08T09:26:18;10.27;;;8.40;;
27706;SDS011;36332;51.384;0.040;2023-03-08T09:28:46;10.77;;;7.68;;
27706;SDS011;36332;51.384;0.040;2023-03-08T09:31:15;11.73;;;7.72;;
27706;SDS011;36332;51.384;0.040;2023-03-08T09:33:45;12.13;;;7.10;;
27706;SDS011;36332;51.384;0.040;2023-03-08T09:36:15;9.07;;;7.57;;
27706;SDS011;36332;51.384;0.040;2023-03-08T09:38:43;12.23;;;7.95;;
27706;SDS011;36332;51.384;0.040;2023-03-08T09:44:03;12.40;;;7.95;;
27706;SDS011;36332;51.384;0.040;2023-03-08T09:46:47;17.40;;;9.23;;
27706;SDS011;36332;51.384;0.040;2023-03-08T09:49:40;12.23;;;8.75;;
27706;SDS011;36332;51.384;0.040;2023-03-08T09:52:54;16.05;;;8.32;;
27706;SDS011;36332;51.384;0.040;2023-03-08T09:55:04;13.77;;;7.10;;
27706;SDS011;36332;51.384;0.040;2023-03-08T09:57:42;17.90;;;7.18;;
27706;SDS011;36332;51.384;0.040;2023-03-08T10:00:20;16.25;;;7.68;;
27706;SDS011;36332;51.384;0.040;2023-03-08T10:15:57;15.52;;;7.18;;
27706;SDS011;36332;51.384;0.040;2023-03-08T10:18:44;15.88;;;7.88;;
27706;SDS011;36332;51.384;0.040;2023-03-08T10:21:14;10.55;;;7.50;;
27706;SDS011;36332;51.384;0.040;2023-03-08T10:23:48;9.25;;;6.97;;
27706;SDS011;36332;51.384;0.040;2023-03-08T10:26:33;10.10;;;6.78;;
27706;SDS011;36332;51.384;0.040;2023-03-08T10:29:01;11.07;;;5.93;;
27706;SDS011;36332;51.384;0.040;2023-03-08T10:31:29;8.80;;;6.47;;
27706;SDS011;36332;51.384;0.040;2023-03-08T10:34:01;8.10;;;5.40;;
27706;SDS011;36332;51.384;0.040;2023-03-08T10:36:32;16.73;;;7.55;;
27706;SDS011;36332;51.384;0.040;2023-03-08T10:41:36;9.77;;;6.28;;
27706;SDS011;36332;51.384;0.040;2023-03-08T10:44:11;9.10;;;6.07;;
27706;SDS011;36332;51.384;0.040;2023-03-08T10:46:45;12.43;;;5.30;;
27706;SDS011;36332;51.384;0.040;2023-03-08T10:49:17;9.60;;;5.30;;
27706;SDS011;36332;51.384;0.040;2023-03-08T10:51:56;8.15;;;5.43;;
27706;SDS011;36332;51.384;0.040;2023-03-08T10:54:25;11.13;;;6.50;;
27706;SDS011;36332;51.384;0.040;2023-03-08T10:56:55;11.07;;;5.57;;
27706;SDS011;36332;51.384;0.040;2023-03-08T10:59:26;9.50;;;5.47;;
27706;SDS011;36332;51.384;0.040;2023-03-08T11:02:14;10.40;;;6.40;;
27706;SDS011;36332;51.384;0.040;2023-03-08T11:04:54;15.87;;;5.70;;
27706;SDS011;36332;51.384;0.040;2023-03-08T11:07:27;11.98;;;5.47;;
27706;SDS011;36332;51.384;0.040;2023-03-08T11:12:39;14.57;;;6.35;;
27706;SDS011;36332;51.384;0.040;2023-03-08T11:15:14;9.93;;;6.53;;
27706;SDS011;36332;51.384;0.040;2023-03-08T11:17:46;12.48;;;5.68;;
27706;SDS011;36332;51.384;0.040;2023-03-08T11:26:09;8.98;;;5.30;;
27706;SDS011;36332;51.384;0.040;2023-03-08T11:29:05;17.30;;;6.10;;
27706;SDS011;36332;51.384;0.040;2023-03-08T11:34:34;11.00;;;5.15;;
27706;SDS011;36332;51.384;0.040;2023-03-08T11:45:37;10.68;;;6.20;;
27706;SDS011;36332;51.384;0.040;2023-03-08T11:50:55;17.50;;;6.72;;
27706;SDS011;36332;51.384;0.040;2023-03-08T12:01:46;14.48;;;4.80;;
27706;SDS011;36332;51.384;0.040;2023-03-08T12:04:25;8.90;;;5.68;;
27706;SDS011;36332;51.384;0.040;2023-03-08T12:06:59;14.75;;;5.85;;
27706;SDS011;36332;51.384;0.040;2023-03-08T12:15:01;8.68;;;5.05;;
27706;SDS011;36332;51.384;0.040;2023-03-08T12:17:39;15.32;;;8.63;;
27706;SDS011;36332;51.384;0.040;2023-03-08T12:20:12;17.75;;;9.77;;
27706;SDS011;36332;51.384;0.040;2023-03-08T12:33:22;15.88;;;9.73;;
27706;SDS011;36332;51.384;0.040;2023-03-08T12:35:56;10.43;;;7.30;;
27706;SDS011;36332;51.384;0.040;2023-03-08T12:38:38;13.15;;;8.63;;
27706;SDS011;36332;51.384;0.040;2023-03-08T12:47:16;17.52;;;7.53;;
27706;SDS011;36332;51.384;0.040;2023-03-08T12:49:49;11.93;;;8.48;;
27706;SDS011;36332;51.384;0.040;2023-03-08T12:54:58;11.57;;;8.63;;
27706;SDS011;36332;51.384;0.040;2023-03-08T12:57:30;13.15;;;7.28;;
27706;SDS011;36332;51.384;0.040;2023-03-08T13:05:42;8.60;;;5.13;;
27706;SDS011;36332;51.384;0.040;2023-03-08T13:08:20;10.52;;;5.57;;
27706;SDS011;36332;51.384;0.040;2023-03-08T13:10:59;14.80;;;6.13;;
27706;SDS011;36332;51.384;0.040;2023-03-08T13:13:44;10.93;;;6.32;;
27706;SDS011;36332;51.384;0.040;2023-03-08T13:21:48;12.38;;;5.03;;
27706;SDS011;36332;51.384;0.040;2023-03-08T13:32:48;11.27;;;5.32;;
27706;SDS011;36332;51.384;0.040;2023-03-08T13:35:17;7.85;;;5.20;;
27706;SDS011;36332;51.384;0.040;2023-03-08T13:37:55;12.20;;;5.70;;
27706;SDS011;36332;51.384;0.040;2023-03-08T13:40:26;11.20;;;5.13;;
27706;SDS011;36332;51.384;0.040;2023-03-08T13:42:59;7.68;;;4.82;;
27706;SDS011;36332;51.384;0.040;2023-03-08T13:45:31;12.30;;;4.70;;
27706;SDS011;36332;51.384;0.040;2023-03-08T13:47:59;7.82;;;5.10;;
27706;SDS011;36332;51.384;0.040;2023-03-08T13:50:33;10.07;;;5.00;;
27706;SDS011;36332;51.384;0.040;2023-03-08T13:53:09;9.20;;;5.00;;
27706;SDS011;36332;51.384;0.040;2023-03-08T13:55:43;12.18;;;5.53;;
27706;SDS011;36332;51.384;0.040;2023-03-08T13:58:32;11.55;;;5.60;;
27706;SDS011;36332;51.384;0.040;2023-03-08T14:03:30;17.63;;;6.75;;
27706;SDS011;36332;51.384;0.040;2023-03-08T14:05:59;12.98;;;6.72;;
27706;SDS011;36332;51.384;0.040;2023-03-08T14:08:27;20.52;;;6.35;;
27706;SDS011;36332;51.384;0.040;2023-03-08T14:10:59;9.20;;;5.65;;
27706;SDS011;36332;51.384;0.040;2023-03-08T14:13:36;8.25;;;5.88;;
27706;SDS011;36332;51.384;0.040;2023-03-08T14:16:05;8.65;;;5.53;;
27706;SDS011;36332;51.384;0.040;2023-03-08T14:18:35;8.02;;;5.97;;
27706;SDS011;36332;51.384;0.040;2023-03-08T14:21:06;14.10;;;7.03;;
27706;SDS011;36332;51.384;0.040;2023-03-08T14:23:41;8.90;;;5.43;;
27706;SDS011;36332;51.384;0.040;2023-03-08T14:37:11;13.48;;;6.78;;
27706;SDS011;36332;51.384;0.040;2023-03-08T14:39:51;13.98;;;6.65;;
27706;SDS011;36332;51.384;0.040;2023-03-08T14:42:34;8.85;;;5.78;;
27706;SDS011;36332;51.384;0.040;2023-03-08T14:45:19;9.25;;;6.57;;
27706;SDS011;36332;51.384;0.040;2023-03-08T14:47:49;13.30;;;5.88;;
27706;SDS011;36332;51.384;0.040;2023-03-08T14:50:21;10.35;;;5.60;;
27706;SDS011;36332;51.384;0.040;2023-03-08T14:52:52;12.90;;;5.78;;
27706;SDS011;36332;51.384;0.040;2023-03-08T14:55:23;15.30;;;6.50;;
27706;SDS011;36332;51.384;0.040;2023-03-08T14:58:03;9.95;;;6.18;;
27706;SDS011;36332;51.384;0.040;2023-03-08T15:01:00;12.05;;;6.55;;
27706;SDS011;36332;51.384;0.040;2023-03-08T15:03:29;16.75;;;10.15;;
27706;SDS011;36332;51.384;0.040;2023-03-08T15:06:00;12.95;;;8.32;;
27706;SDS011;36332;51.384;0.040;2023-03-08T15:08:34;8.38;;;6.15;;
27706;SDS011;36332;51.384;0.040;2023-03-08T15:11:01;16.10;;;9.68;;
27706;SDS011;36332;51.384;0.040;2023-03-08T15:13:30;18.83;;;9.80;;
27706;SDS011;36332;51.384;0.040;2023-03-08T15:15:58;14.05;;;9.52;;
27706;SDS011;36332;51.384;0.040;2023-03-08T15:18:26;12.45;;;7.38;;
27706;SDS011;36332;51.384;0.040;2023-03-08T15:20:53;17.35;;;7.93;;
27706;SDS011;36332;51.384;0.040;2023-03-08T15:23:26;12.85;;;7.82;;
27706;SDS011;36332;51.384;0.040;2023-03-08T15:25:55;14.40;;;7.93;;
27706;SDS011;36332;51.384;0.040;2023-03-08T15:28:25;13.65;;;8.50;;
27706;SDS011;36332;51.384;0.040;2023-03-08T15:30:53;13.27;;;7.68;;
27706;SDS011;36332;51.384;0.040;2023-03-08T15:33:21;12.75;;;7.82;;
27706;SDS011;36332;51.384;0.040;2023-03-08T15:35:49;13.80;;;7.78;;
27706;SDS011;36332;51.384;0.040;2023-03-08T15:38:18;13.10;;;7.07;;
27706;SDS011;36332;51.384;0.040;2023-03-08T15:40:47;14.15;;;7.28;;
27706;SDS011;36332;51.384;0.040;2023-03-08T15:43:15;9.73;;;6.72;;
27706;SDS011;36332;51.384;0.040;2023-03-08T15:45:43;11.82;;;7.65;;
27706;SDS011;36332;51.384;0.040;2023-03-08T15:48:12;14.50;;;7.38;;
27706;SDS011;36332;51.384;0.040;2023-03-08T15:50:42;10.90;;;7.78;;
27706;SDS011;36332;51.384;0.040;2023-03-08T15:53:11;10.93;;;7.03;;
27706;SDS011;36332;51.384;0.040;2023-03-08T15:55:52;14.77;;;8.60;;
27706;SDS011;36332;51.384;0.040;2023-03-08T15:58:20;19.58;;;9.48;;
27706;SDS011;36332;51.384;0.040;2023-03-08T16:00:48;12.15;;;8.43;;
27706;SDS011;36332;51.384;0.040;2023-03-08T16:03:17;14.32;;;9.18;;
27706;SDS011;36332;51.384;0.040;2023-03-08T16:05:58;11.65;;;8.35;;
27706;SDS011;36332;51.384;0.040;2023-03-08T16:08:26;13.73;;;8.55;;
27706;SDS011;36332;51.384;0.040;2023-03-08T16:10:55;20.58;;;9.80;;
27706;SDS011;36332;51.384;0.040;2023-03-08T16:13:26;15.00;;;9.25;;
27706;SDS011;36332;51.384;0.040;2023-03-08T16:15:56;18.95;;;9.77;;
27706;SDS011;36332;51.384;0.040;2023-03-08T16:18:26;13.95;;;9.57;;
27706;SDS011;36332;51.384;0.040;2023-03-08T16:20:56;14.93;;;9.35;;
27706;SDS011;36332;51.384;0.040;2023-03-08T16:23:24;16.30;;;10.15;;
27706;SDS011;36332;51.384;0.040;2023-03-08T16:26:03;18.48;;;10.40;;
27706;SDS011;36332;51.384;0.040;2023-03-08T16:28:44;15.15;;;9.38;;
27706;SDS011;36332;51.384;0.040;2023-03-08T16:31:13;18.95;;;10.52;;
27706;SDS011;36332;51.384;0.040;2023-03-08T16:33:42;16.73;;;11.10;;
27706;SDS011;36332;51.384;0.040;2023-03-08T16:36:10;20.33;;;10.82;;
27706;SDS011;36332;51.384;0.040;2023-03-08T16:38:38;22.90;;;10.60;;
27706;SDS011;36332;51.384;0.040;2023-03-08T16:41:07;19.65;;;10.35;;
27706;SDS011;36332;51.384;0.040;2023-03-08T16:43:42;20.80;;;10.35;;
27706;SDS011;36332;51.384;0.040;2023-03-08T16:46:14;16.00;;;9.43;;
27706;SDS011;36332;51.384;0.040;2023-03-08T16:48:44;20.25;;;10.50;;
27706;SDS011;36332;51.384;0.040;2023-03-08T16:51:16;18.67;;;10.05;;
27706;SDS011;36332;51.384;0.040;2023-03-08T16:53:46;14.60;;;9.60;;